Time;durP1;ratioP1;P1;durP2;ratioP2;P2;SDS_P1;SDS_P2;PMS_P1;PMS_P2;Temp;Humidity;BMP_temperature;BMP_pressure;BME280_temperature;BME280_humidity;BME280_pressure;Samples;Min_cycle;Max_cycle;Signal;HPM_P1;HPM_P2
2022/07/07 00:01:21;;;;;;;4.03;2.30;;;;;;;;;;4981328;28;20986;-71
2022/07/07 00:03:47;;;;;;;2.08;1.40;;;;;;;;;;4981056;28;20045;-71
2022/07/07 00:06:12;;;;;;;3.22;1.10;;;;;;;;;;4981148;28;20042;-71
2022/07/07 00:08:38;;;;;;;2.70;1.48;;;;;;;;;;4979392;28;20073;-71
2022/07/07 00:11:03;;;;;;;1.80;1.60;;;;;;;;;;4980672;28;20476;-71
2022/07/07 00:13:29;;;;;;;3.28;1.30;;;;;;;;;;4983605;28;20065;-71
2022/07/07 00:15:54;;;;;;;2.08;1.42;;;;;;;;;;4984614;28;20949;-71
2022/07/07 00:18:21;;;;;;;3.42;1.30;;;;;;;;;;4984875;28;20141;-71
2022/07/07 00:20:46;;;;;;;4.25;1.75;;;;;;;;;;4983518;28;20129;-71
2022/07/07 00:23:11;;;;;;;5.35;1.90;;;;;;;;;;4984511;28;20066;-71
2022/07/07 00:25:37;;;;;;;5.50;1.50;;;;;;;;;;4984487;28;20181;-72
2022/07/07 00:28:02;;;;;;;2.90;1.60;;;;;;;;;;4984708;28;20042;-71
2022/07/07 00:30:28;;;;;;;2.58;1.70;;;;;;;;;;4983671;28;20680;-72
2022/07/07 00:32:53;;;;;;;5.72;1.65;;;;;;;;;;4982648;28;20026;-71
2022/07/07 00:35:18;;;;;;;5.28;1.58;;;;;;;;;;4984225;28;20140;-71
2022/07/07 00:37:44;;;;;;;3.63;1.52;;;;;;;;;;4984339;28;20411;-71
2022/07/07 00:40:10;;;;;;;2.63;1.60;;;;;;;;;;4983933;28;20139;-71
2022/07/07 00:42:35;;;;;;;5.72;1.92;;;;;;;;;;4983299;28;20050;-71
2022/07/07 00:45:01;;;;;;;3.20;1.50;;;;;;;;;;4982235;28;20049;-71
2022/07/07 00:47:28;;;;;;;2.80;1.63;;;;;;;;;;4984058;28;20104;-71
2022/07/07 00:49:54;;;;;;;1.85;1.63;;;;;;;;;;4982522;28;20046;-70
2022/07/07 00:52:20;;;;;;;8.27;2.08;;;;;;;;;;4983184;28;20506;-72
2022/07/07 00:54:54;;;;;;;3.17;1.80;;;;;;;;;;4983892;28;20080;-70
2022/07/07 00:57:20;;;;;;;3.15;2.03;;;;;;;;;;4966632;28;20064;-70
2022/07/07 00:59:46;;;;;;;2.13;1.92;;;;;;;;;;4984061;28;20042;-71
2022/07/07 01:02:11;;;;;;;7.45;1.83;;;;;;;;;;4983754;28;20499;-72
2022/07/07 01:04:37;;;;;;;6.38;1.80;;;;;;;;;;4982916;28;20042;-73
2022/07/07 01:07:02;;;;;;;3.95;2.03;;;;;;;;;;4983675;28;20061;-72
2022/07/07 01:09:28;;;;;;;7.50;1.95;;;;;;;;;;4984076;28;20038;-71
2022/07/07 01:11:56;;;;;;;3.53;1.77;;;;;;;;;;4983330;28;20035;-71
2022/07/07 01:14:22;;;;;;;9.05;1.80;;;;;;;;;;4982559;28;20896;-71
2022/07/07 01:16:50;;;;;;;3.88;1.60;;;;;;;;;;4982623;28;20038;-72
2022/07/07 01:19:16;;;;;;;1.70;1.60;;;;;;;;;;4983652;28;20064;-72
2022/07/07 01:22:08;;;;;;;4.80;1.70;;;;;;;;;;4983182;28;20041;-73
2022/07/07 01:24:34;;;;;;;3.97;1.88;;;;;;;;;;4976090;28;20050;-71
2022/07/07 01:27:10;;;;;;;2.40;1.60;;;;;;;;;;4982504;28;20042;-70
2022/07/07 01:29:41;;;;;;;4.88;1.75;;;;;;;;;;4983288;28;20061;-71
2022/07/07 01:32:08;;;;;;;4.50;2.05;;;;;;;;;;4983340;28;20030;-71
2022/07/07 01:34:34;;;;;;;6.25;1.88;;;;;;;;;;4983202;28;20038;-71
2022/07/07 01:37:00;;;;;;;2.25;2.05;;;;;;;;;;4982352;28;20042;-71
2022/07/07 01:39:25;;;;;;;6.97;1.90;;;;;;;;;;4983354;28;20454;-71
2022/07/07 01:41:51;;;;;;;3.17;2.30;;;;;;;;;;4982680;28;20038;-71
2022/07/07 01:44:16;;;;;;;2.15;1.95;;;;;;;;;;4976170;28;20042;-71
2022/07/07 01:46:42;;;;;;;2.50;1.80;;;;;;;;;;4965108;28;20038;-71
2022/07/07 01:49:07;;;;;;;2.88;2.03;;;;;;;;;;4982320;28;20038;-70
2022/07/07 01:51:33;;;;;;;3.05;1.73;;;;;;;;;;4982489;28;20065;-71
2022/07/07 01:53:58;;;;;;;8.05;1.88;;;;;;;;;;4982742;28;20197;-71
2022/07/07 01:56:24;;;;;;;2.47;1.63;;;;;;;;;;4981637;28;20374;-71
2022/07/07 01:58:49;;;;;;;2.90;2.10;;;;;;;;;;4980862;28;20035;-71
2022/07/07 02:01:14;;;;;;;4.57;2.10;;;;;;;;;;4982557;28;20038;-71
2022/07/07 02:03:40;;;;;;;6.15;2.03;;;;;;;;;;4982693;28;20045;-71
2022/07/07 02:06:05;;;;;;;5.38;2.00;;;;;;;;;;4981173;28;20085;-71
2022/07/07 02:08:31;;;;;;;3.97;2.33;;;;;;;;;;4981508;28;20041;-71
2022/07/07 02:11:14;;;;;;;2.25;1.75;;;;;;;;;;4981387;28;20386;-71
2022/07/07 02:13:41;;;;;;;5.03;2.00;;;;;;;;;;4982184;28;20784;-71
2022/07/07 02:16:07;;;;;;;3.55;2.20;;;;;;;;;;4982508;28;20044;-70
2022/07/07 02:18:37;;;;;;;3.78;1.80;;;;;;;;;;4982581;28;20042;-70
2022/07/07 02:21:04;;;;;;;3.45;1.90;;;;;;;;;;4981498;28;20037;-71
2022/07/07 02:23:31;;;;;;;5.40;2.13;;;;;;;;;;4982094;28;20085;-71
2022/07/07 02:25:56;;;;;;;3.42;2.10;;;;;;;;;;4982222;28;20026;-71
2022/07/07 02:28:23;;;;;;;3.08;1.80;;;;;;;;;;4982577;28;20465;-71
2022/07/07 02:30:52;;;;;;;2.22;1.90;;;;;;;;;;4982291;28;20018;-71
2022/07/07 02:33:18;;;;;;;5.55;1.90;;;;;;;;;;4981006;28;20042;-71
2022/07/07 02:35:44;;;;;;;2.50;2.00;;;;;;;;;;4980452;28;20049;-70
2022/07/07 02:38:09;;;;;;;7.82;1.75;;;;;;;;;;4982542;28;20050;-71
2022/07/07 02:40:35;;;;;;;4.05;1.95;;;;;;;;;;4982168;28;20050;-71
2022/07/07 02:43:00;;;;;;;4.93;1.88;;;;;;;;;;4980683;28;20066;-71
2022/07/07 02:45:25;;;;;;;4.32;1.90;;;;;;;;;;4982122;28;20466;-71
2022/07/07 02:47:51;;;;;;;1.85;1.50;;;;;;;;;;4980616;28;20037;-71
2022/07/07 02:50:16;;;;;;;6.60;1.70;;;;;;;;;;4982080;28;20700;-71
2022/07/07 02:52:42;;;;;;;6.72;1.80;;;;;;;;;;4980681;28;20050;-70
2022/07/07 02:55:08;;;;;;;9.75;2.30;;;;;;;;;;4979461;28;20042;-71
2022/07/07 02:57:33;;;;;;;3.15;1.83;;;;;;;;;;4980697;28;20135;-71
2022/07/07 02:59:59;;;;;;;3.28;1.73;;;;;;;;;;4981726;28;20049;-71
2022/07/07 03:02:25;;;;;;;2.80;1.83;;;;;;;;;;4981896;28;20038;-71
2022/07/07 03:04:50;;;;;;;6.07;1.77;;;;;;;;;;4979185;28;20073;-71
2022/07/07 03:07:15;;;;;;;2.55;1.58;;;;;;;;;;4981825;28;20407;-71
2022/07/07 03:09:41;;;;;;;2.80;1.80;;;;;;;;;;4980420;28;20035;-70
2022/07/07 03:12:07;;;;;;;2.47;1.70;;;;;;;;;;4964261;28;20413;-70
2022/07/07 03:14:32;;;;;;;2.70;1.80;;;;;;;;;;4979961;28;20483;-70
2022/07/07 03:16:57;;;;;;;2.22;1.70;;;;;;;;;;4980969;28;20045;-71
2022/07/07 03:19:23;;;;;;;2.13;1.80;;;;;;;;;;4981408;28;20042;-70
2022/07/07 03:21:49;;;;;;;2.85;1.90;;;;;;;;;;4981461;28;20034;-70
2022/07/07 03:24:14;;;;;;;5.90;2.15;;;;;;;;;;4981286;28;20610;-70
2022/07/07 03:26:39;;;;;;;3.50;2.40;;;;;;;;;;4980904;28;20483;-70
2022/07/07 03:29:05;;;;;;;5.20;2.03;;;;;;;;;;4981426;28;20035;-71
2022/07/07 03:31:30;;;;;;;3.78;2.00;;;;;;;;;;4981384;28;20388;-70
2022/07/07 03:33:56;;;;;;;2.75;2.00;;;;;;;;;;4980705;28;20048;-70
2022/07/07 03:36:21;;;;;;;4.32;1.80;;;;;;;;;;4981351;28;20492;-70
2022/07/07 03:38:47;;;;;;;3.72;1.92;;;;;;;;;;4980483;28;20150;-70
2022/07/07 03:41:12;;;;;;;1.92;1.73;;;;;;;;;;4981272;28;20137;-70
2022/07/07 03:43:37;;;;;;;5.20;2.00;;;;;;;;;;4978161;28;20113;-70
2022/07/07 03:46:03;;;;;;;2.60;1.83;;;;;;;;;;4980499;28;20042;-71
2022/07/07 03:48:31;;;;;;;2.22;1.63;;;;;;;;;;4983492;28;20042;-70
2022/07/07 03:50:57;;;;;;;4.15;1.90;;;;;;;;;;4984895;28;20046;-71
2022/07/07 03:53:22;;;;;;;4.25;1.75;;;;;;;;;;4982071;28;20042;-70
2022/07/07 03:55:48;;;;;;;5.28;2.08;;;;;;;;;;4982348;28;20034;-71
2022/07/07 03:58:13;;;;;;;7.15;1.88;;;;;;;;;;4985312;28;20779;-70
2022/07/07 04:00:39;;;;;;;4.03;1.90;;;;;;;;;;4984032;28;20479;-71
2022/07/07 04:03:04;;;;;;;2.25;1.70;;;;;;;;;;4984179;28;20054;-70
2022/07/07 04:05:30;;;;;;;2.67;1.75;;;;;;;;;;4984760;28;20057;-71
2022/07/07 04:07:55;;;;;;;3.47;2.08;;;;;;;;;;4985171;28;20510;-71
2022/07/07 04:10:21;;;;;;;10.27;2.25;;;;;;;;;;4984003;28;20034;-70
2022/07/07 04:12:46;;;;;;;8.35;1.98;;;;;;;;;;4983410;28;20046;-71
2022/07/07 04:15:11;;;;;;;6.15;2.45;;;;;;;;;;4984619;28;20046;-70
2022/07/07 04:17:37;;;;;;;4.18;2.35;;;;;;;;;;4984201;28;20030;-71
2022/07/07 04:20:04;;;;;;;2.17;1.98;;;;;;;;;;4976326;28;20045;-71
2022/07/07 04:22:29;;;;;;;6.25;2.33;;;;;;;;;;4980696;28;20042;-71
2022/07/07 04:24:55;;;;;;;10.27;2.28;;;;;;;;;;4983554;28;20038;-71
2022/07/07 04:27:20;;;;;;;15.73;2.58;;;;;;;;;;4984169;28;20034;-71
2022/07/07 04:29:47;;;;;;;3.05;2.30;;;;;;;;;;4983662;28;20022;-70
2022/07/07 04:32:12;;;;;;;5.75;2.42;;;;;;;;;;4982970;28;20499;-71
2022/07/07 04:34:38;;;;;;;2.92;2.53;;;;;;;;;;4983266;28;20036;-71
2022/07/07 04:37:04;;;;;;;7.63;2.50;;;;;;;;;;4984218;28;20041;-71
2022/07/07 04:39:29;;;;;;;4.63;2.05;;;;;;;;;;4983885;28;20542;-71
2022/07/07 04:41:55;;;;;;;4.45;2.20;;;;;;;;;;4983571;28;20173;-71
2022/07/07 04:44:20;;;;;;;2.33;1.98;;;;;;;;;;4982904;28;20517;-71
2022/07/07 04:46:46;;;;;;;4.25;2.00;;;;;;;;;;4983361;28;20065;-70
2022/07/07 04:49:11;;;;;;;3.00;1.92;;;;;;;;;;4984180;28;20033;-71
2022/07/07 04:51:37;;;;;;;2.15;1.95;;;;;;;;;;4983727;28;20093;-71
2022/07/07 04:54:03;;;;;;;9.70;2.20;;;;;;;;;;4982531;28;20053;-70
2022/07/07 04:56:29;;;;;;;3.42;2.08;;;;;;;;;;4981468;28;20069;-71
2022/07/07 04:58:55;;;;;;;2.35;2.08;;;;;;;;;;4982909;28;20064;-70
2022/07/07 05:01:21;;;;;;;4.10;2.10;;;;;;;;;;4983546;28;20436;-70
2022/07/07 05:03:46;;;;;;;2.78;2.03;;;;;;;;;;4982849;28;20069;-70
2022/07/07 05:06:12;;;;;;;4.10;1.90;;;;;;;;;;4983219;28;20550;-70
2022/07/07 05:08:38;;;;;;;2.83;1.70;;;;;;;;;;4983576;28;20146;-70
2022/07/07 05:11:04;;;;;;;3.67;1.88;;;;;;;;;;4983008;28;20034;-70
2022/07/07 05:13:29;;;;;;;4.80;1.85;;;;;;;;;;4982591;28;20092;-70
2022/07/07 05:15:55;;;;;;;6.07;1.98;;;;;;;;;;4983240;28;20113;-70
2022/07/07 05:18:21;;;;;;;3.65;1.70;;;;;;;;;;4980981;28;20034;-70
2022/07/07 05:20:47;;;;;;;4.20;1.92;;;;;;;;;;4981018;28;20769;-70
2022/07/07 05:23:12;;;;;;;5.45;1.98;;;;;;;;;;4981689;28;20149;-70
2022/07/07 05:25:38;;;;;;;6.63;1.88;;;;;;;;;;4981918;28;21218;-70
2022/07/07 05:28:03;;;;;;;2.15;1.70;;;;;;;;;;4977517;28;20053;-70
2022/07/07 05:30:29;;;;;;;3.80;1.95;;;;;;;;;;4980427;28;20085;-70
2022/07/07 05:32:54;;;;;;;2.03;1.88;;;;;;;;;;4980757;28;20042;-70
2022/07/07 05:35:20;;;;;;;3.45;1.80;;;;;;;;;;4981735;28;20042;-70
2022/07/07 05:37:46;;;;;;;3.67;1.80;;;;;;;;;;4981596;28;20054;-70
2022/07/07 05:40:12;;;;;;;4.63;2.00;;;;;;;;;;4980497;28;20088;-70
2022/07/07 05:42:37;;;;;;;2.85;1.80;;;;;;;;;;4980469;28;20042;-70
2022/07/07 05:45:04;;;;;;;3.33;1.90;;;;;;;;;;4981504;28;20042;-70
2022/07/07 05:47:30;;;;;;;2.65;1.95;;;;;;;;;;4982024;28;20964;-70
2022/07/07 05:49:56;;;;;;;4.10;2.20;;;;;;;;;;4980509;28;20041;-71
2022/07/07 05:52:21;;;;;;;6.28;2.33;;;;;;;;;;4982062;28;20045;-71
2022/07/07 05:54:47;;;;;;;8.98;2.05;;;;;;;;;;4982242;28;20038;-71
2022/07/07 05:57:14;;;;;;;2.72;1.90;;;;;;;;;;4982798;28;20042;-71
2022/07/07 05:59:40;;;;;;;4.93;2.00;;;;;;;;;;4981773;28;20066;-71
2022/07/07 06:02:06;;;;;;;7.80;1.92;;;;;;;;;;4981034;28;20042;-71
2022/07/07 06:04:31;;;;;;;2.95;1.80;;;;;;;;;;4982150;28;20038;-71
2022/07/07 06:06:57;;;;;;;9.05;1.80;;;;;;;;;;4982365;28;20038;-71
2022/07/07 06:09:23;;;;;;;4.97;2.15;;;;;;;;;;4982186;28;20034;-71
2022/07/07 06:11:50;;;;;;;2.30;1.83;;;;;;;;;;4981150;28;20514;-71
2022/07/07 06:14:15;;;;;;;4.35;2.00;;;;;;;;;;4980482;28;20052;-71
2022/07/07 06:16:42;;;;;;;2.75;1.90;;;;;;;;;;4982613;28;20030;-71
2022/07/07 06:19:09;;;;;;;6.25;1.80;;;;;;;;;;4981349;28;20042;-71
2022/07/07 06:21:35;;;;;;;3.08;1.80;;;;;;;;;;4981981;28;20121;-71
2022/07/07 06:24:01;;;;;;;5.05;1.55;;;;;;;;;;4980941;28;20042;-71
2022/07/07 06:26:26;;;;;;;5.95;2.40;;;;;;;;;;4981463;28;20272;-71
2022/07/07 06:28:52;;;;;;;3.60;1.67;;;;;;;;;;4981277;28;20451;-71
2022/07/07 06:31:17;;;;;;;7.97;1.98;;;;;;;;;;4982057;28;20141;-70
2022/07/07 06:33:43;;;;;;;2.83;2.00;;;;;;;;;;4982878;28;20435;-70
2022/07/07 06:36:08;;;;;;;2.97;1.95;;;;;;;;;;4981481;28;20046;-68
2022/07/07 06:38:34;;;;;;;3.33;1.70;;;;;;;;;;4982880;28;20037;-69
2022/07/07 06:41:00;;;;;;;3.10;1.70;;;;;;;;;;4981993;28;20133;-71
2022/07/07 06:43:25;;;;;;;9.05;2.03;;;;;;;;;;4981973;28;20086;-71
2022/07/07 06:45:51;;;;;;;4.05;1.65;;;;;;;;;;4981238;28;20042;-71
2022/07/07 06:48:17;;;;;;;2.28;1.70;;;;;;;;;;4982469;28;20042;-68
2022/07/07 06:50:42;;;;;;;5.88;1.75;;;;;;;;;;4982025;28;20038;-69
2022/07/07 06:53:08;;;;;;;8.27;2.05;;;;;;;;;;4980649;28;20030;-70
2022/07/07 06:55:33;;;;;;;6.00;1.75;;;;;;;;;;4981266;28;20038;-70
2022/07/07 06:57:59;;;;;;;3.45;1.50;;;;;;;;;;4981732;28;20151;-69
2022/07/07 07:00:24;;;;;;;2.38;1.50;;;;;;;;;;4982276;28;20069;-71
2022/07/07 07:02:50;;;;;;;1.73;1.40;;;;;;;;;;4982372;28;20034;-71
2022/07/07 07:05:16;;;;;;;2.80;1.50;;;;;;;;;;4982923;28;20491;-71
2022/07/07 07:07:42;;;;;;;3.08;1.50;;;;;;;;;;4981984;28;20128;-72
2022/07/07 07:10:08;;;;;;;3.45;1.50;;;;;;;;;;4983050;28;20077;-71
2022/07/07 07:12:34;;;;;;;2.47;1.40;;;;;;;;;;4981961;28;20125;-69
2022/07/07 07:15:00;;;;;;;1.48;1.30;;;;;;;;;;4982104;28;20117;-71
2022/07/07 07:17:25;;;;;;;1.50;1.40;;;;;;;;;;4980111;28;20839;-71
2022/07/07 07:19:51;;;;;;;4.45;1.50;;;;;;;;;;4985041;28;20400;-68
2022/07/07 07:22:17;;;;;;;2.65;1.52;;;;;;;;;;4983657;28;20042;-71
2022/07/07 07:24:43;;;;;;;6.13;1.65;;;;;;;;;;4985773;28;20100;-68
2022/07/07 07:27:08;;;;;;;6.88;1.35;;;;;;;;;;4986123;28;20031;-68
2022/07/07 07:29:33;;;;;;;2.10;1.10;;;;;;;;;;4983654;28;20034;-69
2022/07/07 07:31:59;;;;;;;9.70;1.80;;;;;;;;;;4986610;28;20121;-72
2022/07/07 07:34:24;;;;;;;5.35;1.40;;;;;;;;;;4985629;28;20042;-71
2022/07/07 07:36:50;;;;;;;3.35;1.30;;;;;;;;;;4988646;28;20157;-70
2022/07/07 07:39:15;;;;;;;13.10;1.45;;;;;;;;;;4987466;28;20034;-71
2022/07/07 07:41:42;;;;;;;2.85;1.33;;;;;;;;;;4991222;28;20034;-70
2022/07/07 07:44:08;;;;;;;5.10;1.60;;;;;;;;;;4984684;28;20034;-70
2022/07/07 07:46:33;;;;;;;6.55;1.27;;;;;;;;;;4991982;28;20053;-71
2022/07/07 07:49:00;;;;;;;1.35;1.20;;;;;;;;;;4990936;28;20038;-70
2022/07/07 07:51:25;;;;;;;3.42;1.33;;;;;;;;;;4985193;28;20045;-72
2022/07/07 07:53:55;;;;;;;6.28;1.33;;;;;;;;;;4986500;28;20046;-71
2022/07/07 07:56:21;;;;;;;4.00;1.23;;;;;;;;;;4988984;28;20045;-72
2022/07/07 07:58:46;;;;;;;2.20;1.00;;;;;;;;;;4983971;28;20113;-71
2022/07/07 08:01:12;;;;;;;2.92;1.40;;;;;;;;;;4984574;28;20519;-72
2022/07/07 08:03:37;;;;;;;2.92;1.40;;;;;;;;;;4983480;28;20133;-78
2022/07/07 08:06:03;;;;;;;5.18;1.30;;;;;;;;;;4986948;28;20057;-72
2022/07/07 08:08:28;;;;;;;3.00;1.38;;;;;;;;;;4983850;28;20094;-71
2022/07/07 08:10:54;;;;;;;7.50;1.58;;;;;;;;;;4985145;28;20035;-72
2022/07/07 08:13:19;;;;;;;5.80;1.45;;;;;;;;;;4982075;28;20133;-72
2022/07/07 08:15:45;;;;;;;3.28;1.50;;;;;;;;;;4984110;28;20038;-71
2022/07/07 08:18:10;;;;;;;2.70;1.70;;;;;;;;;;4984615;28;20042;-71
2022/07/07 08:20:36;;;;;;;3.38;1.58;;;;;;;;;;4984072;28;20058;-72
2022/07/07 08:23:01;;;;;;;7.38;1.50;;;;;;;;;;4983646;28;20038;-72
2022/07/07 08:25:27;;;;;;;2.25;1.38;;;;;;;;;;4983671;28;20048;-71
2022/07/07 08:27:52;;;;;;;4.53;1.50;;;;;;;;;;4967001;28;20446;-73
2022/07/07 08:30:18;;;;;;;2.83;1.30;;;;;;;;;;4986978;28;20049;-73
2022/07/07 08:32:45;;;;;;;2.50;1.17;;;;;;;;;;4983876;28;20041;-73
2022/07/07 08:35:12;;;;;;;3.13;1.30;;;;;;;;;;4982157;28;20045;-74
2022/07/07 08:37:38;;;;;;;7.10;1.23;;;;;;;;;;4983319;28;20439;-68
2022/07/07 08:40:03;;;;;;;2.60;1.40;;;;;;;;;;4984313;28;20045;-71
2022/07/07 08:42:29;;;;;;;2.03;1.13;;;;;;;;;;4984372;28;20077;-70
2022/07/07 08:44:54;;;;;;;6.15;1.33;;;;;;;;;;4983923;28;20484;-69
2022/07/07 08:47:20;;;;;;;3.63;1.30;;;;;;;;;;4982597;28;20050;-71
2022/07/07 08:49:46;;;;;;;3.40;1.27;;;;;;;;;;4984143;28;20038;-71
2022/07/07 08:52:12;;;;;;;2.28;1.30;;;;;;;;;;4983018;28;20407;-71
2022/07/07 08:54:39;;;;;;;1.63;1.13;;;;;;;;;;4983312;28;20480;-71
2022/07/07 08:57:06;;;;;;;2.30;1.33;;;;;;;;;;4983107;28;20482;-72
2022/07/07 08:59:31;;;;;;;3.33;1.13;;;;;;;;;;4984200;28;20030;-72
2022/07/07 09:01:58;;;;;;;1.48;1.08;;;;;;;;;;4982704;28;20645;-70
2022/07/07 09:04:24;;;;;;;5.68;1.10;;;;;;;;;;4983834;28;20046;-69
2022/07/07 09:07:00;;;;;;;1.75;0.95;;;;;;;;;;4985105;28;20049;-71
2022/07/07 09:09:36;;;;;;;4.35;1.10;;;;;;;;;;4986913;28;20042;-70
2022/07/07 09:12:07;;;;;;;2.63;0.75;;;;;;;;;;4983786;28;20057;-70
2022/07/07 09:14:47;;;;;;;1.52;0.93;;;;;;;;;;4983641;28;20038;-72
2022/07/07 09:17:26;;;;;;;4.35;1.30;;;;;;;;;;4983609;28;20885;-69
2022/07/07 09:20:07;;;;;;;3.40;1.40;;;;;;;;;;4982711;28;20034;-70
2022/07/07 09:22:45;;;;;;;1.75;1.17;;;;;;;;;;4983544;28;20030;-70
2022/07/07 09:25:11;;;;;;;2.72;0.80;;;;;;;;;;4998239;28;20061;-71
2022/07/07 09:27:59;;;;;;;1.40;1.10;;;;;;;;;;4983759;28;20030;-69
2022/07/07 09:30:39;;;;;;;2.78;1.30;;;;;;;;;;4965057;28;20041;-69
2022/07/07 09:33:10;;;;;;;1.65;0.90;;;;;;;;;;4983429;28;20066;-69
2022/07/07 09:38:25;;;;;;;1.80;1.17;;;;;;;;;;4984016;28;20488;-69
2022/07/07 09:41:05;;;;;;;1.40;1.10;;;;;;;;;;4980893;28;20046;-70
2022/07/07 09:43:33;;;;;;;3.80;1.33;;;;;;;;;;4982650;28;20034;-70
2022/07/07 09:46:18;;;;;;;5.60;1.30;;;;;;;;;;4982458;28;20837;-69
2022/07/07 09:48:55;;;;;;;1.45;1.15;;;;;;;;;;4984214;28;20562;-69
2022/07/07 09:51:32;;;;;;;1.58;0.98;;;;;;;;;;4983779;28;20149;-69
2022/07/07 09:54:14;;;;;;;1.77;1.00;;;;;;;;;;4982196;28;20043;-69
2022/07/07 09:56:44;;;;;;;4.70;1.13;;;;;;;;;;4982685;28;20038;-70
2022/07/07 09:59:15;;;;;;;1.60;0.85;;;;;;;;;;4982797;28;20109;-68
2022/07/07 10:01:43;;;;;;;2.58;1.00;;;;;;;;;;4982962;28;20411;-69
2022/07/07 10:04:12;;;;;;;2.35;1.10;;;;;;;;;;4982059;28;20034;-69
2022/07/07 10:06:40;;;;;;;2.03;1.30;;;;;;;;;;4984513;28;20038;-68
2022/07/07 10:09:06;;;;;;;2.97;1.40;;;;;;;;;;4984105;28;20109;-68
2022/07/07 10:11:39;;;;;;;2.65;1.80;;;;;;;;;;4984998;28;20085;-68
2022/07/07 10:14:19;;;;;;;6.00;1.92;;;;;;;;;;4981633;28;20050;-70
2022/07/07 10:16:47;;;;;;;4.05;1.77;;;;;;;;;;4983247;28;20117;-69
2022/07/07 10:19:16;;;;;;;3.90;1.67;;;;;;;;;;4982924;28;20062;-69
2022/07/07 10:21:45;;;;;;;5.07;1.80;;;;;;;;;;4983595;28;20039;-69
2022/07/07 10:24:11;;;;;;;4.75;1.50;;;;;;;;;;4982605;28;20113;-69
2022/07/07 10:26:38;;;;;;;2.40;1.38;;;;;;;;;;4982524;28;20088;-69
2022/07/07 10:29:09;;;;;;;8.13;1.65;;;;;;;;;;4982124;28;20045;-68
2022/07/07 10:31:35;;;;;;;5.00;1.70;;;;;;;;;;4982168;28;20113;-69
2022/07/07 10:34:06;;;;;;;2.70;1.83;;;;;;;;;;4982227;28;20038;-70
2022/07/07 10:36:49;;;;;;;4.45;1.45;;;;;;;;;;4982163;28;20034;-70
2022/07/07 10:39:16;;;;;;;5.80;1.90;;;;;;;;;;4981727;28;20121;-68
2022/07/07 10:42:03;;;;;;;2.75;1.67;;;;;;;;;;4982193;28;20041;-69
2022/07/07 10:44:31;;;;;;;5.07;1.73;;;;;;;;;;4981820;28;20125;-69
2022/07/07 10:47:11;;;;;;;3.72;2.22;;;;;;;;;;4981278;28;20538;-71
2022/07/07 10:49:45;;;;;;;4.35;2.00;;;;;;;;;;4981819;28;20026;-71
2022/07/07 10:52:16;;;;;;;2.70;2.15;;;;;;;;;;4982076;28;20034;-71
2022/07/07 10:54:49;;;;;;;4.25;1.90;;;;;;;;;;4981979;28;20030;-71
2022/07/07 10:57:16;;;;;;;7.40;2.25;;;;;;;;;;4981261;28;20447;-70
2022/07/07 10:59:58;;;;;;;6.28;2.10;;;;;;;;;;4982086;28;20039;-70
2022/07/07 11:03:09;;;;;;;5.18;2.10;;;;;;;;;;4981801;28;20309;-69
2022/07/07 11:05:36;;;;;;;2.47;2.00;;;;;;;;;;4976071;28;20049;-69
2022/07/07 11:08:06;;;;;;;3.00;2.10;;;;;;;;;;4982411;28;20847;-70
2022/07/07 11:10:54;;;;;;;3.92;1.77;;;;;;;;;;4980320;28;20471;-69
2022/07/07 11:13:35;;;;;;;4.45;1.77;;;;;;;;;;4981510;28;20052;-70
2022/07/07 11:16:12;;;;;;;3.53;1.58;;;;;;;;;;4981591;28;20113;-70
2022/07/07 11:18:38;;;;;;;3.60;1.70;;;;;;;;;;4981957;28;20133;-70
2022/07/07 11:21:05;;;;;;;1.73;1.38;;;;;;;;;;4980960;28;20125;-70
2022/07/07 11:23:57;;;;;;;4.60;1.70;;;;;;;;;;4980164;28;20031;-70
2022/07/07 11:26:25;;;;;;;5.18;1.55;;;;;;;;;;4978804;28;20046;-71
2022/07/07 11:28:57;;;;;;;2.10;1.67;;;;;;;;;;4981531;28;20030;-70
2022/07/07 11:31:25;;;;;;;2.88;2.20;;;;;;;;;;4980931;28;20043;-70
2022/07/07 11:33:52;;;;;;;2.67;1.90;;;;;;;;;;4981182;28;20034;-70
2022/07/07 11:36:20;;;;;;;5.05;1.40;;;;;;;;;;4980408;28;20104;-71
2022/07/07 11:38:48;;;;;;;2.22;1.40;;;;;;;;;;4981752;28;20666;-71
2022/07/07 11:41:14;;;;;;;4.45;1.85;;;;;;;;;;4980271;28;20039;-70
2022/07/07 11:43:39;;;;;;;2.03;1.45;;;;;;;;;;4981197;28;20574;-70
2022/07/07 11:46:05;;;;;;;4.88;1.63;;;;;;;;;;4981651;28;20061;-71
2022/07/07 11:48:33;;;;;;;3.00;1.45;;;;;;;;;;4981579;28;20022;-71
2022/07/07 11:50:59;;;;;;;3.53;1.58;;;;;;;;;;4979951;28;20030;-71
2022/07/07 11:53:24;;;;;;;1.48;1.38;;;;;;;;;;4980592;28;20042;-71
2022/07/07 11:55:50;;;;;;;5.75;1.35;;;;;;;;;;4979508;28;20038;-71
2022/07/07 11:58:15;;;;;;;2.00;1.67;;;;;;;;;;4982017;28;20158;-71
2022/07/07 12:00:41;;;;;;;1.80;1.25;;;;;;;;;;4981083;28;20042;-70
2022/07/07 12:03:08;;;;;;;3.13;1.00;;;;;;;;;;4980735;28;20109;-70
2022/07/07 12:05:37;;;;;;;4.40;1.27;;;;;;;;;;4981230;28;20026;-70
2022/07/07 12:08:08;;;;;;;4.75;1.38;;;;;;;;;;4981656;28;20462;-71
2022/07/07 12:10:36;;;;;;;3.10;1.30;;;;;;;;;;4985101;28;20132;-71
2022/07/07 12:13:04;;;;;;;2.45;1.40;;;;;;;;;;4984435;28;20034;-72
2022/07/07 12:15:34;;;;;;;5.68;1.40;;;;;;;;;;4977449;28;20116;-71
2022/07/07 12:18:01;;;;;;;2.67;1.50;;;;;;;;;;4982516;28;20411;-71
2022/07/07 12:20:27;;;;;;;2.60;1.50;;;;;;;;;;4981565;28;20040;-70
2022/07/07 12:22:55;;;;;;;3.95;1.88;;;;;;;;;;4982350;28;20376;-70
2022/07/07 12:25:23;;;;;;;2.45;1.20;;;;;;;;;;4982141;28;20125;-69
2022/07/07 12:27:56;;;;;;;3.28;1.33;;;;;;;;;;4980892;28;20122;-68
2022/07/07 12:30:22;;;;;;;2.08;1.23;;;;;;;;;;4982459;28;20676;-70
2022/07/07 12:32:47;;;;;;;1.60;1.50;;;;;;;;;;4982641;28;20418;-69
2022/07/07 12:35:39;;;;;;;7.30;1.85;;;;;;;;;;4984008;28;20026;-69
2022/07/07 12:38:08;;;;;;;8.13;1.55;;;;;;;;;;4984550;28;20042;-69
2022/07/07 12:40:40;;;;;;;2.70;1.60;;;;;;;;;;4983401;28;20046;-70
2022/07/07 12:43:07;;;;;;;4.38;1.60;;;;;;;;;;4984009;28;20488;-70
2022/07/07 12:45:34;;;;;;;5.97;1.60;;;;;;;;;;4983898;28;20048;-70
2022/07/07 12:47:59;;;;;;;6.00;1.75;;;;;;;;;;4982541;28;20443;-70
2022/07/07 12:50:25;;;;;;;4.05;1.20;;;;;;;;;;4983394;28;20571;-68
2022/07/07 12:52:54;;;;;;;2.13;1.20;;;;;;;;;;4983434;28;20061;-70
2022/07/07 12:55:20;;;;;;;6.22;1.90;;;;;;;;;;4983869;28;20439;-68
2022/07/07 12:57:45;;;;;;;1.88;1.30;;;;;;;;;;4983553;28;20045;-69
2022/07/07 13:00:24;;;;;;;4.65;1.40;;;;;;;;;;4983478;28;20041;-71
2022/07/07 13:02:49;;;;;;;2.42;1.50;;;;;;;;;;4983452;28;20049;-70
2022/07/07 13:05:15;;;;;;;2.92;1.60;;;;;;;;;;4983039;28;20418;-71
2022/07/07 13:07:40;;;;;;;3.72;1.50;;;;;;;;;;4984042;28;20038;-71
2022/07/07 13:10:06;;;;;;;1.58;1.40;;;;;;;;;;4984259;28;20049;-73
2022/07/07 13:12:31;;;;;;;10.95;1.58;;;;;;;;;;4983531;28;20104;-71
2022/07/07 13:14:57;;;;;;;3.72;1.70;;;;;;;;;;4983641;28;20030;-72
2022/07/07 13:17:22;;;;;;;5.95;1.77;;;;;;;;;;4985058;28;20146;-71
2022/07/07 13:19:50;;;;;;;4.03;1.70;;;;;;;;;;4985108;28;20129;-69
2022/07/07 13:22:15;;;;;;;6.15;1.80;;;;;;;;;;4984413;28;20041;-71
2022/07/07 13:24:41;;;;;;;2.28;1.60;;;;;;;;;;4983537;28;20042;-71
2022/07/07 13:27:06;;;;;;;2.65;1.80;;;;;;;;;;4993671;28;20077;-71
2022/07/07 13:29:31;;;;;;;3.53;1.60;;;;;;;;;;4983990;28;20107;-71
2022/07/07 13:31:57;;;;;;;3.30;1.92;;;;;;;;;;4982647;28;20113;-70
2022/07/07 13:34:22;;;;;;;2.20;2.00;;;;;;;;;;4984050;28;20038;-69
2022/07/07 13:36:48;;;;;;;2.30;1.75;;;;;;;;;;4984304;28;20141;-68
2022/07/07 13:39:13;;;;;;;5.25;1.73;;;;;;;;;;4985785;28;20097;-68
2022/07/07 13:41:39;;;;;;;5.95;1.30;;;;;;;;;;4984341;28;20093;-69
2022/07/07 13:44:04;;;;;;;3.08;1.52;;;;;;;;;;4983548;28;21145;-69
2022/07/07 13:46:30;;;;;;;4.18;1.75;;;;;;;;;;4982801;28;20038;-69
2022/07/07 13:48:55;;;;;;;2.55;1.52;;;;;;;;;;4981992;28;20046;-69
2022/07/07 13:51:21;;;;;;;5.13;1.88;;;;;;;;;;4984282;28;20080;-70
2022/07/07 13:53:46;;;;;;;4.05;1.55;;;;;;;;;;4982728;28;20035;-71
2022/07/07 13:56:12;;;;;;;4.10;1.98;;;;;;;;;;4982132;28;20042;-69
2022/07/07 13:58:37;;;;;;;4.63;1.83;;;;;;;;;;4984458;28;20121;-69
2022/07/07 14:01:03;;;;;;;5.50;1.75;;;;;;;;;;4983485;28;20614;-69
2022/07/07 14:03:28;;;;;;;3.65;1.75;;;;;;;;;;4984651;28;20069;-69
2022/07/07 14:05:53;;;;;;;2.88;2.03;;;;;;;;;;4986010;28;20160;-70
2022/07/07 14:08:19;;;;;;;5.40;2.53;;;;;;;;;;4982744;28;20423;-69
2022/07/07 14:10:44;;;;;;;2.95;2.15;;;;;;;;;;4983364;28;20037;-69
2022/07/07 14:13:10;;;;;;;5.40;2.38;;;;;;;;;;4984416;28;20095;-71
2022/07/07 14:15:35;;;;;;;4.93;2.53;;;;;;;;;;4983304;28;20113;-69
2022/07/07 14:18:01;;;;;;;5.53;2.60;;;;;;;;;;4981710;28;20054;-69
2022/07/07 14:20:26;;;;;;;7.78;2.70;;;;;;;;;;4982287;28;20044;-70
2022/07/07 14:22:52;;;;;;;3.40;3.05;;;;;;;;;;4982159;28;21002;-70
2022/07/07 14:25:17;;;;;;;6.15;3.40;;;;;;;;;;4981187;28;20033;-71
2022/07/07 14:27:44;;;;;;;6.00;3.67;;;;;;;;;;4980712;28;20113;-70
2022/07/07 14:30:11;;;;;;;7.35;4.40;;;;;;;;;;4981449;28;20034;-70
2022/07/07 14:32:37;;;;;;;7.50;4.70;;;;;;;;;;4980153;28;20126;-70
2022/07/07 14:35:03;;;;;;;4.53;4.13;;;;;;;;;;4981725;28;20479;-71
2022/07/07 14:37:29;;;;;;;5.32;4.78;;;;;;;;;;4982009;28;20038;-70
2022/07/07 14:39:54;;;;;;;8.55;4.80;;;;;;;;;;4981042;28;20056;-71
2022/07/07 14:42:20;;;;;;;7.85;5.10;;;;;;;;;;4981547;28;20125;-70
2022/07/07 14:44:47;;;;;;;5.82;4.35;;;;;;;;;;4979455;28;20029;-72
2022/07/07 14:47:13;;;;;;;7.53;4.82;;;;;;;;;;4981793;28;20117;-71